Time;durP1;ratioP1;P1;durP2;ratioP2;P2;SDS_P1;SDS_P2;PMS_P1;PMS_P2;Temp;Humidity;BMP_temperature;BMP_pressure;BME280_temperature;BME280_humidity;BME280_pressure;Samples;Min_cycle;Max_cycle;Signal;HPM_P1;HPM_P2
2021/04/22 00:02:24;;;;;;;21.05;5.32;;;;;;;10.27;100.00;102389.50;5052137;28;20041;-70
2021/04/22 00:04:50;;;;;;;24.48;5.85;;;;;;;10.25;100.00;102377.94;5051941;28;20045;-67
2021/04/22 00:07:20;;;;;;;27.30;6.70;;;;;;;10.24;100.00;102384.44;5052088;28;20032;-68
2021/04/22 00:09:46;;;;;;;27.60;5.95;;;;;;;10.24;100.00;102388.00;5052114;28;20037;-69
2021/04/22 00:12:13;;;;;;;26.80;5.10;;;;;;;10.22;100.00;102389.22;5051908;28;20495;-68
2021/04/22 00:14:39;;;;;;;27.35;4.75;;;;;;;10.19;100.00;102392.34;5051769;28;20036;-67
2021/04/22 00:17:10;;;;;;;24.00;4.15;;;;;;;10.18;100.00;102380.56;5051942;28;20040;-73
2021/04/22 00:19:36;;;;;;;26.40;4.72;;;;;;;10.16;100.00;102387.28;5051845;28;20032;-68
2021/04/22 00:22:02;;;;;;;27.02;4.60;;;;;;;10.13;100.00;102388.53;5051668;28;20191;-66
2021/04/22 00:24:28;;;;;;;24.25;4.72;;;;;;;10.11;100.00;102390.63;5051683;28;20040;-68
2021/04/22 00:26:54;;;;;;;28.67;4.70;;;;;;;10.11;100.00;102392.53;5051800;28;20552;-71
2021/04/22 00:29:19;;;;;;;24.40;4.25;;;;;;;10.11;100.00;102389.78;5051613;28;20564;-71
2021/04/22 00:31:45;;;;;;;27.45;6.15;;;;;;;10.10;100.00;102382.66;5051393;28;20385;-68
2021/04/22 00:34:11;;;;;;;24.33;4.80;;;;;;;10.08;100.00;102391.03;5050236;28;20426;-66
2021/04/22 00:36:36;;;;;;;24.33;5.10;;;;;;;10.08;100.00;102391.03;5050972;28;20056;-65
2021/04/22 00:39:03;;;;;;;27.52;5.53;;;;;;;10.06;100.00;102392.25;5051726;28;20033;-75
2021/04/22 00:41:29;;;;;;;20.63;5.38;;;;;;;10.03;100.00;102385.31;5051389;28;20079;-71
2021/04/22 00:43:55;;;;;;;36.38;5.57;;;;;;;10.03;100.00;102395.41;5051536;28;20517;-73
2021/04/22 00:46:21;;;;;;;25.45;4.65;;;;;;;10.01;100.00;102389.28;5051405;28;20044;-66
2021/04/22 00:48:47;;;;;;;24.42;5.72;;;;;;;9.96;100.00;102388.03;5051098;28;20143;-67
2021/04/22 00:51:13;;;;;;;27.80;5.85;;;;;;;9.95;100.00;102394.53;5051378;28;20037;-69
2021/04/22 00:53:38;;;;;;;24.95;5.05;;;;;;;9.94;100.00;102395.56;5050070;28;20465;-66
2021/04/22 00:56:05;;;;;;;19.52;6.03;;;;;;;9.92;100.00;102386.75;5051178;28;20120;-75
2021/04/22 00:58:31;;;;;;;25.30;5.22;;;;;;;9.89;100.00;102387.16;5051226;28;20041;-68
2021/04/22 01:00:59;;;;;;;28.70;5.57;;;;;;;9.90;100.00;102386.09;5051019;28;20059;-67
2021/04/22 01:03:26;;;;;;;22.42;5.45;;;;;;;9.87;100.00;102383.75;5051008;28;20044;-66
2021/04/22 01:05:58;;;;;;;21.25;5.45;;;;;;;9.86;100.00;102382.06;5051008;28;20044;-66
2021/04/22 01:08:24;;;;;;;22.33;5.40;;;;;;;9.84;100.00;102386.88;5051147;28;20040;-69
2021/04/22 01:10:50;;;;;;;30.02;6.82;;;;;;;9.79;100.00;102391.25;5050822;28;20060;-75
2021/04/22 01:13:16;;;;;;;22.90;5.90;;;;;;;9.79;100.00;102397.56;5051336;28;20037;-65
2021/04/22 01:15:42;;;;;;;25.35;6.28;;;;;;;9.78;100.00;102393.13;5050811;28;20044;-68
2021/04/22 01:18:08;;;;;;;23.95;5.90;;;;;;;9.78;100.00;102389.56;5050942;28;20047;-68
2021/04/22 01:20:37;;;;;;;31.23;6.72;;;;;;;9.76;100.00;102391.66;5050822;28;20182;-69
2021/04/22 01:23:04;;;;;;;22.58;5.88;;;;;;;9.74;100.00;102400.03;5050859;28;20094;-68
2021/04/22 01:25:32;;;;;;;33.10;7.53;;;;;;;9.72;100.00;102407.59;5050677;28;20047;-71
2021/04/22 01:27:59;;;;;;;26.00;6.60;;;;;;;9.71;100.00;102405.88;5050738;28;20039;-69
2021/04/22 01:30:28;;;;;;;23.83;6.30;;;;;;;9.68;100.00;102396.22;5050636;28;20613;-69
2021/04/22 01:32:55;;;;;;;26.23;7.00;;;;;;;9.67;100.00;102393.69;5050645;28;20029;-70
2021/04/22 01:35:25;;;;;;;35.08;7.38;;;;;;;9.63;100.00;102404.16;5050713;28;20048;-66
2021/04/22 01:37:52;;;;;;;19.60;5.63;;;;;;;9.58;100.00;102403.06;5050679;28;20040;-68
2021/04/22 01:40:18;;;;;;;32.00;6.80;;;;;;;9.57;100.00;102398.66;5050551;28;20480;-67
2021/04/22 01:42:44;;;;;;;28.95;7.78;;;;;;;9.52;100.00;102395.66;5050580;28;20068;-72
2021/04/22 01:45:10;;;;;;;25.45;5.65;;;;;;;9.51;100.00;102399.41;5050510;28;20075;-70
2021/04/22 01:47:37;;;;;;;25.02;6.22;;;;;;;9.48;100.00;102399.81;5050586;28;20048;-69
2021/04/22 01:50:08;;;;;;;26.52;6.63;;;;;;;9.46;100.00;102402.75;5054683;28;20510;-67
2021/04/22 01:52:34;;;;;;;27.02;6.57;;;;;;;9.43;100.00;102402.31;5054555;28;20560;-74
2021/04/22 01:55:00;;;;;;;27.38;6.20;;;;;;;9.41;100.00;102410.69;5054568;28;20041;-70
2021/04/22 01:57:26;;;;;;;25.35;7.05;;;;;;;9.38;100.00;102410.25;5054541;28;20037;-68
2021/04/22 01:59:51;;;;;;;33.78;7.10;;;;;;;9.35;100.00;102409.56;5054443;28;20491;-70
2021/04/22 02:02:17;;;;;;;28.65;6.65;;;;;;;9.31;100.00;102405.53;5054345;28;20045;-72
2021/04/22 02:04:44;;;;;;;31.40;7.93;;;;;;;9.31;100.00;102405.53;5052980;28;20041;-67
2021/04/22 02:07:11;;;;;;;29.13;7.15;;;;;;;9.27;100.00;102406.97;5054480;28;20037;-65
2021/04/22 02:09:37;;;;;;;30.92;7.35;;;;;;;9.22;100.00;102401.28;5054231;28;20041;-69
2021/04/22 02:12:04;;;;;;;24.75;6.22;;;;;;;9.19;100.00;102404.38;5054203;28;20044;-66
2021/04/22 02:14:30;;;;;;;23.48;6.35;;;;;;;9.16;100.00;102407.50;5054165;28;20040;-71
2021/04/22 02:16:56;;;;;;;27.90;8.02;;;;;;;9.14;100.00;102409.56;5054194;28;20041;-70
2021/04/22 02:19:23;;;;;;;25.80;7.03;;;;;;;9.08;100.00;102415.81;5054138;28;20049;-68
2021/04/22 02:21:48;;;;;;;27.23;6.13;;;;;;;9.08;100.00;102415.81;5054055;28;20045;-68
2021/04/22 02:24:14;;;;;;;20.85;6.22;;;;;;;9.05;100.00;102410.75;5053999;28;20091;-66
2021/04/22 02:26:40;;;;;;;21.65;6.30;;;;;;;9.00;100.00;102418.66;5054091;28;20037;-71
2021/04/22 02:29:05;;;;;;;23.50;5.82;;;;;;;9.00;100.00;102418.66;5054144;28;20047;-68
2021/04/22 02:31:31;;;;;;;21.42;5.70;;;;;;;8.96;100.00;102429.09;5053908;28;20040;-69
2021/04/22 02:33:57;;;;;;;28.10;6.22;;;;;;;8.93;100.00;102409.56;5053740;28;20067;-66
2021/04/22 02:36:22;;;;;;;27.55;5.70;;;;;;;8.89;100.00;102421.91;5053901;28;20075;-64
2021/04/22 02:38:48;;;;;;;21.15;6.05;;;;;;;8.88;100.00;102425.66;5053945;28;20094;-67
2021/04/22 02:41:15;;;;;;;25.17;5.47;;;;;;;8.84;100.00;102424.31;5053601;28;20041;-67
2021/04/22 02:43:40;;;;;;;28.10;5.28;;;;;;;8.83;100.00;102430.81;5053555;28;20033;-66
2021/04/22 02:46:06;;;;;;;21.10;5.32;;;;;;;8.79;100.00;102430.38;5053712;28;20399;-66
2021/04/22 02:48:32;;;;;;;20.05;6.15;;;;;;;8.76;100.00;102426.16;5053598;28;20106;-69
2021/04/22 02:50:58;;;;;;;24.80;5.53;;;;;;;8.74;100.00;102433.66;5053435;28;20029;-69
2021/04/22 02:53:24;;;;;;;20.92;5.63;;;;;;;8.75;100.00;102434.50;5053534;28;20033;-67
2021/04/22 02:55:51;;;;;;;24.02;6.18;;;;;;;8.71;100.00;102425.88;5053407;28;20039;-65
2021/04/22 02:58:17;;;;;;;22.70;4.70;;;;;;;8.68;100.00;102426.28;5053215;28;20502;-66
2021/04/22 03:00:45;;;;;;;20.90;5.05;;;;;;;8.69;100.00;102429.84;5053026;28;20049;-69
2021/04/22 03:03:11;;;;;;;17.17;5.22;;;;;;;8.67;100.00;102427.28;5053240;28;20525;-70
2021/04/22 03:05:38;;;;;;;29.60;6.15;;;;;;;8.60;100.00;102426.38;5053353;28;20052;-69
2021/04/22 03:08:05;;;;;;;20.23;5.60;;;;;;;8.59;100.00;102421.94;5051941;28;20047;-65
2021/04/22 03:10:31;;;;;;;24.02;6.13;;;;;;;8.58;100.00;102420.25;5053089;28;20086;-67
2021/04/22 03:12:57;;;;;;;22.58;6.18;;;;;;;8.51;100.00;102424.78;5051770;28;20079;-70
2021/04/22 03:15:23;;;;;;;28.73;6.32;;;;;;;8.51;100.00;102418.50;5052998;28;20065;-67
2021/04/22 03:17:49;;;;;;;17.45;4.85;;;;;;;8.49;100.00;102431.44;5053125;28;20071;-71
2021/04/22 03:20:16;;;;;;;21.00;4.75;;;;;;;8.44;100.00;102426.56;5052929;28;20435;-66
2021/04/22 03:22:42;;;;;;;24.48;5.00;;;;;;;8.45;100.00;102430.97;5052882;28;20158;-69
2021/04/22 03:25:10;;;;;;;28.52;5.25;;;;;;;8.43;100.00;102423.00;5052880;28;20578;-67
2021/04/22 03:27:36;;;;;;;20.70;4.55;;;;;;;8.40;100.00;102417.09;5052960;28;20040;-69
2021/04/22 03:30:04;;;;;;;25.13;4.80;;;;;;;8.38;100.00;102421.88;5052839;28;20568;-68
2021/04/22 03:32:29;;;;;;;21.33;5.28;;;;;;;8.36;100.00;102415.78;5052806;28;20064;-67
2021/04/22 03:34:55;;;;;;;16.83;4.32;;;;;;;8.33;100.00;102416.13;5051379;28;20518;-67
2021/04/22 03:37:20;;;;;;;18.98;4.22;;;;;;;8.31;100.00;102423.63;5053293;28;20041;-70
2021/04/22 03:39:46;;;;;;;20.42;4.88;;;;;;;8.30;100.00;102411.06;5052651;28;20037;-70
2021/04/22 03:42:12;;;;;;;21.38;4.88;;;;;;;8.28;100.00;102413.97;5052650;28;20052;-68
2021/04/22 03:44:38;;;;;;;23.80;5.82;;;;;;;8.28;100.00;102403.06;5052478;28;20035;-71
2021/04/22 03:47:03;;;;;;;22.23;4.85;;;;;;;8.25;100.00;102403.47;5052454;28;20399;-67
2021/04/22 03:49:29;;;;;;;25.60;4.93;;;;;;;8.24;100.00;102415.38;5052349;28;20060;-70
2021/04/22 03:51:55;;;;;;;20.23;4.30;;;;;;;8.24;100.00;102411.81;5052334;28;20594;-72
2021/04/22 03:54:21;;;;;;;31.38;5.85;;;;;;;8.22;100.00;102411.16;5052267;28;20127;-72
2021/04/22 03:56:46;;;;;;;21.02;4.78;;;;;;;8.19;100.00;102414.25;5052288;28;20045;-71
2021/04/22 03:59:12;;;;;;;17.17;4.18;;;;;;;8.16;100.00;102416.34;5052241;28;20041;-72
2021/04/22 04:01:38;;;;;;;20.02;5.32;;;;;;;8.14;100.00;102403.91;5052378;28;20037;-68
2021/04/22 04:04:04;;;;;;;18.60;4.57;;;;;;;8.14;100.00;102415.66;5052101;28;20044;-71
2021/04/22 04:06:31;;;;;;;15.45;5.07;;;;;;;8.14;100.00;102404.75;5050914;28;20159;-66
2021/04/22 04:08:57;;;;;;;16.20;5.70;;;;;;;8.11;100.00;102407.88;5052076;28;20459;-68
2021/04/22 04:11:23;;;;;;;24.52;6.20;;;;;;;8.11;100.00;102405.16;5049940;28;20025;-65
2021/04/22 04:13:48;;;;;;;20.55;5.28;;;;;;;8.09;100.00;102409.94;5051931;28;20060;-66
2021/04/22 04:16:14;;;;;;;22.60;6.38;;;;;;;8.08;100.00;102413.69;5051908;28;20044;-68
2021/04/22 04:18:40;;;;;;;20.90;5.85;;;;;;;8.07;100.00;102417.44;5051947;28;20124;-66
2021/04/22 04:21:06;;;;;;;22.23;7.03;;;;;;;8.04;100.00;102401.50;5051790;28;20037;-69
2021/04/22 04:23:31;;;;;;;26.05;7.45;;;;;;;8.02;100.00;102414.44;5051726;28;20045;-64
2021/04/22 04:25:57;;;;;;;21.33;6.68;;;;;;;7.99;100.00;102431.16;5051707;28;20048;-70
2021/04/22 04:28:23;;;;;;;21.10;6.63;;;;;;;7.97;100.00;102422.31;5051848;28;20441;-69
2021/04/22 04:30:48;;;;;;;23.38;6.22;;;;;;;7.94;100.00;102427.28;5050420;28;20041;-70
2021/04/22 04:33:14;;;;;;;22.42;7.55;;;;;;;7.92;100.00;102430.19;5051660;28;20045;-67
2021/04/22 04:35:39;;;;;;;27.90;6.20;;;;;;;7.90;100.00;102432.25;5051588;28;20110;-67
2021/04/22 04:38:06;;;;;;;23.67;6.32;;;;;;;7.86;100.00;102434.50;5051564;28;20047;-69
2021/04/22 04:40:32;;;;;;;24.17;5.97;;;;;;;7.79;100.00;102425.38;5051400;28;20040;-69
2021/04/22 04:43:00;;;;;;;17.88;5.25;;;;;;;7.80;100.00;102450.69;5051399;28;20040;-63
2021/04/22 04:45:26;;;;;;;19.15;6.05;;;;;;;7.79;100.00;102440.84;5051353;28;20029;-65
2021/04/22 04:47:52;;;;;;;21.02;5.22;;;;;;;7.74;100.00;102448.72;5051151;28;20064;-69
2021/04/22 04:50:18;;;;;;;23.08;6.75;;;;;;;7.71;100.00;102444.50;5051286;28;20068;-70
2021/04/22 04:52:44;;;;;;;23.00;5.15;;;;;;;7.69;100.00;102440.28;5051179;28;20057;-71
2021/04/22 04:55:10;;;;;;;16.08;4.68;;;;;;;7.66;100.00;102441.50;5051199;28;20083;-70
2021/04/22 04:57:37;;;;;;;20.80;5.63;;;;;;;7.65;100.00;102449.84;5051194;28;20044;-69
2021/04/22 05:00:07;;;;;;;19.02;5.50;;;;;;;7.59;100.00;102445.13;5051229;28;20383;-71
2021/04/22 05:02:34;;;;;;;21.58;4.70;;;;;;;7.58;100.00;102455.16;5051055;28;20049;-67
2021/04/22 05:05:00;;;;;;;15.15;4.97;;;;;;;7.57;100.00;102453.47;5050993;28;20044;-65
2021/04/22 05:07:26;;;;;;;23.08;5.30;;;;;;;7.54;100.00;102445.69;5051126;28;20056;-66
2021/04/22 05:09:52;;;;;;;19.63;4.55;;;;;;;7.54;100.00;102467.44;5051071;28;20067;-68
2021/04/22 05:12:17;;;;;;;20.63;4.53;;;;;;;7.50;100.00;102452.53;5016717;28;20037;-69
2021/04/22 05:14:43;;;;;;;18.33;4.18;;;;;;;7.50;100.00;102466.13;5050794;28;20055;-66
2021/04/22 05:17:09;;;;;;;22.10;4.93;;;;;;;7.46;100.00;102457.47;5051420;28;20037;-70
2021/04/22 05:19:34;;;;;;;16.45;4.18;;;;;;;7.49;100.00;102461.72;5050811;28;20124;-66
2021/04/22 05:22:00;;;;;;;18.70;3.85;;;;;;;7.47;100.00;102451.00;5050553;28;20037;-65
2021/04/22 05:24:25;;;;;;;15.10;3.30;;;;;;;7.47;100.00;102470.03;5050696;28;20041;-65
2021/04/22 05:26:52;;;;;;;17.92;3.90;;;;;;;7.45;100.00;102463.91;5050792;28;20051;-67
2021/04/22 05:29:18;;;;;;;16.45;3.50;;;;;;;7.45;100.00;102463.91;5050697;28;20068;-67
2021/04/22 05:31:44;;;;;;;19.80;3.30;;;;;;;7.43;100.00;102468.69;5050721;28;20106;-65
2021/04/22 05:34:09;;;;;;;20.60;3.72;;;;;;;7.45;100.00;102480.22;5050570;28;20041;-65
2021/04/22 05:36:35;;;;;;;14.45;3.72;;;;;;;7.44;100.00;102475.81;5050885;28;20048;-68
2021/04/22 05:39:01;;;;;;;20.40;3.88;;;;;;;7.44;100.00;102470.38;5049402;28;20040;-67
2021/04/22 05:41:26;;;;;;;18.60;3.88;;;;;;;7.45;100.00;102469.34;5050569;28;20048;-66
2021/04/22 05:43:52;;;;;;;20.08;4.45;;;;;;;7.45;100.00;102461.19;5050436;28;20052;-73
2021/04/22 05:46:17;;;;;;;18.33;4.95;;;;;;;7.45;100.00;102488.38;5050578;28;20045;-68
2021/04/22 05:48:43;;;;;;;13.77;4.10;;;;;;;7.43;100.00;102492.31;5050224;28;20083;-72
2021/04/22 05:51:09;;;;;;;16.30;5.72;;;;;;;7.45;100.00;102482.94;5050599;28;20033;-68
2021/04/22 05:53:35;;;;;;;19.67;4.70;;;;;;;7.46;100.00;102484.66;5050503;28;20041;-66
2021/04/22 05:56:00;;;;;;;19.58;3.53;;;;;;;7.45;100.00;102501.97;5050670;28;20040;-72
2021/04/22 05:58:26;;;;;;;17.40;4.15;;;;;;;7.46;100.00;102500.97;5050592;28;20048;-68
2021/04/22 06:00:52;;;;;;;16.90;4.35;;;;;;;7.44;100.00;102497.56;5050263;28;20059;-65
2021/04/22 06:03:18;;;;;;;23.73;4.38;;;;;;;7.44;100.00;102500.28;5048908;28;20041;-68
2021/04/22 06:05:43;;;;;;;19.80;5.50;;;;;;;7.42;100.00;102502.34;5050318;28;20047;-69
2021/04/22 06:08:09;;;;;;;13.48;4.40;;;;;;;7.45;100.00;102501.97;5050546;28;20120;-67
2021/04/22 06:10:35;;;;;;;14.15;4.30;;;;;;;7.47;100.00;102507.25;5050685;28;20083;-66
2021/04/22 06:13:01;;;;;;;13.10;4.40;;;;;;;7.47;100.00;102516.28;5050546;28;20045;-66
2021/04/22 06:15:26;;;;;;;19.75;4.13;;;;;;;7.50;100.00;102512.34;5050377;28;20131;-67
2021/04/22 06:17:52;;;;;;;19.85;4.88;;;;;;;7.49;100.00;102503.34;5050313;28;20082;-73
2021/04/22 06:20:22;;;;;;;17.20;3.90;;;;;;;7.53;100.00;102523.69;5050255;28;20053;-71
2021/04/22 06:22:49;;;;;;;15.60;3.83;;;;;;;7.54;100.00;102525.38;5050294;28;20171;-70
2021/04/22 06:25:15;;;;;;;16.67;4.38;;;;;;;7.56;100.00;102517.88;5050268;28;20033;-70
2021/04/22 06:27:41;;;;;;;17.23;4.13;;;;;;;7.62;100.00;102526.34;5050235;28;20171;-66
2021/04/22 06:30:08;;;;;;;19.88;3.92;;;;;;;7.63;100.00;102518.00;5050177;28;20033;-69
2021/04/22 06:32:35;;;;;;;12.98;3.63;;;;;;;7.65;100.00;102523.28;5050154;28;20044;-68
2021/04/22 06:35:01;;;;;;;13.63;3.90;;;;;;;7.70;100.00;102515.41;5052393;28;20036;-66
2021/04/22 06:37:26;;;;;;;14.77;3.72;;;;;;;7.70;100.00;102524.41;5053816;28;20041;-65
2021/04/22 06:39:52;;;;;;;14.32;4.22;;;;;;;7.74;100.00;102530.31;5053770;28;20036;-70
2021/04/22 06:42:18;;;;;;;13.85;4.13;;;;;;;7.77;100.00;102529.97;5053830;28;20047;-68
2021/04/22 06:44:44;;;;;;;15.93;3.88;;;;;;;7.80;100.00;102529.59;5053589;28;20037;-70
2021/04/22 06:47:11;;;;;;;22.42;4.28;;;;;;;7.82;100.00;102522.13;5053866;28;20049;-68
2021/04/22 06:49:38;;;;;;;20.85;3.30;;;;;;;7.84;100.00;102525.50;5053360;28;20045;-72
2021/04/22 06:52:04;;;;;;;14.68;3.20;;;;;;;7.89;100.00;102539.38;5052272;28;20040;-68
2021/04/22 06:54:30;;;;;;;15.52;3.30;;;;;;;7.90;100.00;102538.34;5053343;28;20033;-69
2021/04/22 06:56:55;;;;;;;16.95;3.63;;;;;;;7.93;100.00;102540.72;5053553;28;20376;-67
2021/04/22 06:59:21;;;;;;;15.75;4.85;;;;;;;7.96;100.00;102532.19;5053529;28;20088;-70
2021/04/22 07:01:47;;;;;;;25.67;4.05;;;;;;;8.00;100.00;102536.25;5053263;28;20120;-67
2021/04/22 07:04:13;;;;;;;16.60;3.65;;;;;;;8.04;100.00;102542.16;5053279;28;20053;-71
2021/04/22 07:06:39;;;;;;;15.48;3.33;;;;;;;8.07;100.00;102531.75;5053226;28;20037;-72
2021/04/22 07:09:05;;;;;;;15.88;4.10;;;;;;;8.07;100.00;102537.19;5053036;28;20482;-68
2021/04/22 07:11:30;;;;;;;17.48;4.10;;;;;;;8.11;100.00;102549.38;5053059;28;20083;-63
2021/04/22 07:13:56;;;;;;;22.67;3.90;;;;;;;8.12;100.00;102552.97;5053009;28;20040;-67
2021/04/22 07:16:21;;;;;;;18.80;4.05;;;;;;;8.13;100.00;102550.03;5052994;28;20048;-63
2021/04/22 07:18:47;;;;;;;14.63;4.07;;;;;;;8.18;100.00;102540.50;5053184;28;20041;-68
2021/04/22 07:21:13;;;;;;;19.98;4.68;;;;;;;8.21;100.00;102548.28;5052976;28;20047;-69
2021/04/22 07:23:38;;;;;;;25.05;3.40;;;;;;;8.19;100.00;102550.34;5053230;28;20056;-68
2021/04/22 07:26:04;;;;;;;17.88;3.78;;;;;;;8.22;100.00;102550.00;5052927;28;20047;-67
2021/04/22 07:28:30;;;;;;;17.00;4.75;;;;;;;8.25;100.00;102542.28;5052157;28;20033;-72
2021/04/22 07:30:56;;;;;;;17.67;3.53;;;;;;;8.34;100.00;102554.84;5052752;28;20033;-65
2021/04/22 07:33:23;;;;;;;14.38;3.97;;;;;;;8.36;100.00;102569.09;5052636;28;20065;-70
2021/04/22 07:35:48;;;;;;;19.85;4.68;;;;;;;8.36;100.00;102558.22;5052551;28;20530;-69
2021/04/22 07:38:15;;;;;;;13.82;3.90;;;;;;;8.43;100.00;102563.75;5051799;28;20462;-67
2021/04/22 07:40:43;;;;;;;13.48;3.38;;;;;;;8.50;100.00;102575.59;5052481;28;20041;-64
2021/04/22 07:43:10;;;;;;;21.27;3.55;;;;;;;8.52;100.00;102551.75;5052075;28;20128;-67
2021/04/22 07:45:39;;;;;;;20.80;4.30;;;;;;;8.57;100.00;102549.31;5052007;28;20033;-69
2021/04/22 07:48:06;;;;;;;20.63;4.88;;;;;;;8.62;100.00;102555.03;5051878;28;20032;-65
2021/04/22 07:50:34;;;;;;;24.13;4.30;;;;;;;8.68;100.00;102562.47;5052376;28;20036;-68
2021/04/22 07:53:00;;;;;;;18.13;4.63;;;;;;;8.66;100.00;102564.50;5051127;28;20475;-71
2021/04/22 07:55:30;;;;;;;17.63;4.40;;;;;;;8.73;100.00;102545.56;5047911;28;20048;-63
2021/04/22 07:57:56;;;;;;;19.42;3.45;;;;;;;8.84;100.00;102555.13;5051845;28;20040;-65
2021/04/22 08:00:23;;;;;;;16.08;3.83;;;;;;;8.99;100.00;102564.97;5038642;28;20107;-67
2021/04/22 08:02:49;;;;;;;29.90;4.57;;;;;;;9.04;100.00;102545.34;5044749;28;20175;-61
2021/04/22 08:05:17;;;;;;;18.58;4.63;;;;;;;9.08;100.00;102546.66;5050274;28;20450;-63
2021/04/22 08:07:43;;;;;;;11.65;3.33;;;;;;;9.14;100.00;102561.38;5051388;28;20051;-61
2021/04/22 08:10:14;;;;;;;20.67;3.65;;;;;;;9.24;100.00;102562.78;5051231;28;20044;-64
2021/04/22 08:12:40;;;;;;;21.35;4.20;;;;;;;9.33;100.00;102556.19;5043222;28;20115;-68
2021/04/22 08:15:09;;;;;;;25.27;4.30;;;;;;;9.42;100.00;102554.19;5050872;28;20166;-64
2021/04/22 08:17:40;;;;;;;17.58;3.50;;;;;;;9.48;100.00;102558.88;5048247;28;20035;-62
2021/04/22 08:20:10;;;;;;;18.65;4.28;;;;;;;9.48;100.00;102563.47;5051611;28;20037;-62
2021/04/22 08:22:37;;;;;;;25.20;4.50;;;;;;;9.55;100.00;102565.25;5051067;28;20029;-62
2021/04/22 08:25:06;;;;;;;19.92;4.05;;;;;;;9.68;100.00;102564.53;5049203;28;20452;-62
2021/04/22 08:27:32;;;;;;;23.60;4.00;;;;;;;9.71;100.00;102564.13;5049622;28;20066;-67
2021/04/22 08:29:58;;;;;;;19.63;4.00;;;;;;;9.78;100.00;102554.16;5046892;28;20060;-64
2021/04/22 08:32:23;;;;;;;14.73;4.72;;;;;;;9.77;100.00;102552.47;5051318;28;20037;-68
2021/04/22 08:34:49;;;;;;;24.95;4.78;;;;;;;9.79;100.00;102555.00;5051468;28;20049;-66
2021/04/22 08:37:17;;;;;;;24.02;4.10;;;;;;;9.82;100.00;102544.53;5051952;28;20037;-67
2021/04/22 08:39:43;;;;;;;16.38;4.65;;;;;;;9.92;100.00;102558.69;5051759;28;20120;-68
2021/04/22 08:42:09;;;;;;;16.40;3.70;;;;;;;10.02;100.00;102555.63;5050850;28;20040;-66
2021/04/22 08:44:36;;;;;;;17.08;4.18;;;;;;;10.06;100.00;102556.06;5051729;28;20072;-68
2021/04/22 08:47:01;;;;;;;21.00;4.20;;;;;;;10.06;100.00;102553.34;5050282;28;20545;-69
2021/04/22 08:49:28;;;;;;;15.15;3.63;;;;;;;10.04;100.00;102552.69;5050230;28;20049;-67
2021/04/22 08:51:55;;;;;;;17.77;4.40;;;;;;;9.94;100.00;102561.22;5050927;28;20037;-67
2021/04/22 08:54:21;;;;;;;25.70;4.57;;;;;;;10.01;100.00;102564.84;5050304;28;20043;-68
2021/04/22 08:56:47;;;;;;;25.17;4.22;;;;;;;10.09;100.00;102567.47;5050350;28;20037;-68
2021/04/22 08:59:12;;;;;;;31.42;5.70;;;;;;;10.14;100.00;102561.41;5048946;28;20045;-67
2021/04/22 09:01:38;;;;;;;29.13;5.15;;;;;;;10.28;100.00;102579.63;5050787;28;20043;-66
2021/04/22 09:04:06;;;;;;;32.90;5.50;;;;;;;10.32;100.00;102580.06;5050593;28;20197;-68
2021/04/22 09:06:35;;;;;;;21.10;4.15;;;;;;;10.41;100.00;102581.59;5050792;28;20060;-68
2021/04/22 09:09:04;;;;;;;16.80;4.40;;;;;;;10.51;100.00;102577.47;5031046;28;20044;-64
2021/04/22 09:11:30;;;;;;;13.82;3.58;;;;;;;10.60;100.00;102582.81;5041138;28;20378;-66
2021/04/22 09:13:56;;;;;;;22.63;4.65;;;;;;;10.57;100.00;102582.13;5050678;28;20086;-68
2021/04/22 09:16:29;;;;;;;19.35;4.97;;;;;;;10.62;100.00;102591.66;5050763;28;20099;-69
2021/04/22 09:19:05;;;;;;;27.45;4.65;;;;;;;10.68;100.00;102588.94;5050333;28;20055;-66
2021/04/22 09:21:33;;;;;;;20.63;4.97;;;;;;;10.76;100.00;102585.19;5050470;28;20033;-65
2021/04/22 09:24:03;;;;;;;26.63;4.65;;;;;;;10.75;100.00;102594.44;5050374;28;20150;-69
2021/04/22 09:26:51;;;;;;;21.73;4.25;;;;;;;10.81;100.00;102580.00;5050459;28;20483;-65
2021/04/22 09:29:31;;;;;;;26.17;4.38;;;;;;;10.78;100.00;102594.06;5050665;28;20037;-66
2021/04/22 09:32:27;;;;;;;22.98;4.57;;;;;;;10.95;100.00;102584.50;5050572;28;20032;-66
2021/04/22 09:34:57;;;;;;;19.65;5.50;;;;;;;11.05;100.00;102584.94;5050314;28;20025;-67
2021/04/22 09:37:36;;;;;;;20.50;5.28;;;;;;;11.24;100.00;102582.50;5048945;28;20601;-67
2021/04/22 09:40:24;;;;;;;18.85;4.88;;;;;;;11.30;100.00;102587.19;5050417;28;20045;-67
2021/04/22 09:42:51;;;;;;;28.45;5.40;;;;;;;11.46;100.00;102603.25;5050675;28;20033;-65
2021/04/22 09:45:20;;;;;;;30.30;5.57;;;;;;;11.53;100.00;102593.16;5050483;28;20124;-67
2021/04/22 09:47:46;;;;;;;29.08;5.18;;;;;;;11.48;100.00;102595.66;5050170;28;20437;-65
2021/04/22 09:50:15;;;;;;;28.33;5.93;;;;;;;11.46;100.00;102584.09;5049439;28;20107;-68
2021/04/22 09:52:45;;;;;;;19.85;5.40;;;;;;;11.49;100.00;102597.34;5050075;28;20480;-66
2021/04/22 09:55:17;;;;;;;22.58;5.20;;;;;;;11.61;100.00;102601.16;5050354;28;20056;-68
2021/04/22 09:57:44;;;;;;;25.90;5.22;;;;;;;11.76;100.00;102603.72;5050517;28;20044;-67
2021/04/22 10:00:20;;;;;;;24.92;5.43;;;;;;;11.82;100.00;102592.00;5048514;28;20033;-66
2021/04/22 10:02:57;;;;;;;29.05;6.72;;;;;;;11.72;100.00;102592.34;5048153;28;20044;-67
2021/04/22 10:05:31;;;;;;;27.35;6.38;;;;;;;11.81;100.00;102595.78;5050130;28;20033;-67
2021/04/22 10:08:08;;;;;;;27.08;6.65;;;;;;;11.89;100.00;102592.00;5050367;28;20036;-65
2021/04/22 10:10:35;;;;;;;23.90;5.88;;;;;;;11.98;100.00;102607.19;5053029;28;20064;-67
2021/04/22 10:13:07;;;;;;;25.33;6.22;;;;;;;12.15;100.00;102597.53;5052751;28;20503;-67
2021/04/22 10:15:33;;;;;;;26.83;6.38;;;;;;;12.06;100.00;102601.50;5052688;28;20041;-68
2021/04/22 10:18:08;;;;;;;31.38;7.78;;;;;;;12.19;100.00;102598.78;5054190;28;20037;-66
2021/04/22 10:20:37;;;;;;;33.13;7.75;;;;;;;12.25;100.00;102608.88;5051579;28;20082;-68
2021/04/22 10:23:04;;;;;;;28.27;7.70;;;;;;;12.30;100.00;102611.00;5053340;28;20048;-68
2021/04/22 10:25:32;;;;;;;27.98;7.65;;;;;;;12.29;100.00;102614.78;5053531;28;20033;-69
2021/04/22 10:28:03;;;;;;;25.80;7.25;;;;;;;12.37;100.00;102611.84;5053700;28;20037;-70
2021/04/22 10:30:29;;;;;;;29.90;7.13;;;;;;;12.44;100.00;102626.38;5053401;28;20119;-67
2021/04/22 10:32:55;;;;;;;37.00;8.57;;;;;;;12.44;100.00;102628.28;5053712;28;20128;-67
2021/04/22 10:35:23;;;;;;;31.27;7.55;;;;;;;12.40;100.00;102611.44;5053677;28;20037;-65
2021/04/22 10:37:52;;;;;;;31.50;8.25;;;;;;;12.46;100.00;102620.69;5053723;28;20455;-68
2021/04/22 10:40:21;;;;;;;22.75;7.28;;;;;;;12.50;100.00;102624.72;5053055;28;20544;-65
2021/04/22 10:42:47;;;;;;;31.70;9.52;;;;;;;12.35;100.00;102609.34;5057848;28;20037;-69
2021/04/22 10:45:17;;;;;;;23.13;7.05;;;;;;;12.35;100.00;102628.50;5053591;28;20041;-66
2021/04/22 10:47:44;;;;;;;34.25;7.18;;;;;;;12.48;100.00;102629.53;5053100;28;20491;-67
2021/04/22 10:50:19;;;;;;;33.88;8.85;;;;;;;12.61;100.00;102635.03;5053159;28;20052;-69
2021/04/22 10:52:49;;;;;;;;;;;;;;;12.59;100.00;102626.19;5053134;28;20029;-68
2021/04/22 10:55:24;;;;;;;28.25;7.40;;;;;;;12.74;100.00;102631.44;5053087;28;19974;-65
2021/04/22 10:57:51;;;;;;;;;;;;;;;12.80;100.00;102634.16;5053384;28;20032;-67
2021/04/22 11:00:19;;;;;;;31.73;7.00;;;;;;;12.62;100.00;102631.22;5052990;28;20000;-65
2021/04/22 11:02:47;;;;;;;28.75;7.88;;;;;;;12.62;100.00;102647.69;5033173;28;20051;-66
2021/04/22 11:05:28;;;;;;;29.10;7.60;;;;;;;12.90;100.00;102628.25;5049072;28;20029;-67
2021/04/22 11:08:05;;;;;;;30.65;6.70;;;;;;;12.86;100.00;102627.84;5053194;28;20033;-66
2021/04/22 11:10:44;;;;;;;31.85;7.32;;;;;;;12.87;100.00;102645.97;5051561;28;20029;-67
2021/04/22 11:13:16;;;;;;;29.38;7.03;;;;;;;13.07;100.00;102631.38;5052758;28;20037;-68
2021/04/22 11:15:58;;;;;;;29.33;6.80;;;;;;;13.26;100.00;102644.22;5067509;28;20033;-65